Time;durP1;ratioP1;P1;durP2;ratioP2;P2;SDS_P1;SDS_P2;PMS_P1;PMS_P2;Temp;Humidity;BMP_temperature;BMP_pressure;BME280_temperature;BME280_humidity;BME280_pressure;Samples;Min_cycle;Max_cycle;Signal;HPM_P1;HPM_P2
2022/09/18 00:01:59;;;;;;;5.25;1.48;;;;;;;8.05;100.00;95905.59;5015771;28;20797;-73
2022/09/18 00:04:27;;;;;;;3.10;1.20;;;;;;;8.05;100.00;95910.75;5001320;28;21745;-73
2022/09/18 00:06:54;;;;;;;3.43;1.23;;;;;;;8.15;100.00;95911.94;5002755;28;20796;-73
2022/09/18 00:09:20;;;;;;;7.50;1.43;;;;;;;8.07;100.00;95911.50;5005149;28;20885;-73
2022/09/18 00:11:49;;;;;;;6.22;1.50;;;;;;;8.09;100.00;95917.44;5004540;28;25096;-73
2022/09/18 00:14:18;;;;;;;4.35;1.30;;;;;;;8.01;100.00;95920.41;5003434;28;20798;-73
2022/09/18 00:16:45;;;;;;;4.75;1.20;;;;;;;7.96;100.00;95922.34;5004382;28;20791;-73
2022/09/18 00:19:12;;;;;;;5.80;1.40;;;;;;;8.07;100.00;95924.38;5006740;28;20842;-73
2022/09/18 00:21:42;;;;;;;7.32;1.58;;;;;;;8.04;100.00;95919.38;5009959;28;24455;-73
2022/09/18 00:24:09;;;;;;;5.57;1.40;;;;;;;7.92;100.00;95923.41;5003692;28;20764;-73
2022/09/18 00:26:36;;;;;;;3.28;1.00;;;;;;;7.91;100.00;95925.16;5009931;28;20819;-73
2022/09/18 00:29:03;;;;;;;8.07;1.58;;;;;;;7.87;100.00;95927.97;5001088;28;21152;-73
2022/09/18 00:31:31;;;;;;;4.13;1.30;;;;;;;7.86;100.00;95931.44;4994161;28;24530;-74
2022/09/18 00:33:58;;;;;;;2.67;1.03;;;;;;;7.79;100.00;95933.50;5008523;28;20850;-73
2022/09/18 00:36:25;;;;;;;4.22;1.30;;;;;;;7.84;100.00;95938.44;5001569;28;20798;-73
2022/09/18 00:38:54;;;;;;;3.85;1.17;;;;;;;7.85;100.00;95929.78;4999821;28;24451;-73
2022/09/18 00:41:23;;;;;;;4.10;1.40;;;;;;;7.83;100.00;95926.47;5012441;28;21017;-73
2022/09/18 00:43:50;;;;;;;5.80;1.58;;;;;;;7.81;100.00;95930.84;4996639;28;20796;-73
2022/09/18 00:46:23;;;;;;;5.68;1.52;;;;;;;7.80;100.00;95929.19;5014989;28;20818;-73
2022/09/18 00:49:01;;;;;;;5.07;1.67;;;;;;;7.73;100.00;95926.91;4998789;28;20711;-73
2022/09/18 00:51:30;;;;;;;10.80;1.60;;;;;;;7.84;100.00;95923.78;4993224;28;21369;-74
2022/09/18 00:54:08;;;;;;;6.13;1.47;;;;;;;7.79;100.00;95918.03;5010957;28;20871;-73
2022/09/18 00:56:35;;;;;;;6.55;1.30;;;;;;;7.78;100.00;95918.09;5007241;28;24464;-73
2022/09/18 00:59:02;;;;;;;9.52;1.50;;;;;;;7.72;100.00;95920.09;5000294;28;24803;-73
2022/09/18 01:01:28;;;;;;;4.17;1.37;;;;;;;7.76;100.00;95913.03;5015710;28;21141;-74
2022/09/18 01:03:55;;;;;;;4.47;1.42;;;;;;;7.76;100.00;95913.03;4999800;28;24444;-73
2022/09/18 01:06:30;;;;;;;4.18;1.15;;;;;;;7.76;100.00;95913.88;5000800;28;24452;-73
2022/09/18 01:09:12;;;;;;;3.10;1.13;;;;;;;7.83;100.00;95916.16;5004687;28;24578;-73
2022/09/18 01:11:48;;;;;;;3.70;1.20;;;;;;;7.81;100.00;95921.38;5010839;28;20785;-73
2022/09/18 01:14:27;;;;;;;4.85;1.25;;;;;;;7.81;100.00;95916.22;5003287;28;20756;-73
2022/09/18 01:17:02;;;;;;;5.10;1.50;;;;;;;7.92;100.00;95913.94;4994615;28;21344;-73
2022/09/18 01:19:42;;;;;;;4.80;1.17;;;;;;;7.99;100.00;95915.28;5002185;28;21038;-73
2022/09/18 01:22:22;;;;;;;3.72;1.27;;;;;;;7.97;100.00;95911.13;5008930;28;20690;-73
2022/09/18 01:25:07;;;;;;;3.63;1.23;;;;;;;8.07;100.00;95909.75;5011037;28;20688;-74
2022/09/18 01:27:40;;;;;;;4.07;1.30;;;;;;;8.07;100.00;95914.91;5002319;28;20677;-73
2022/09/18 01:30:11;;;;;;;3.22;1.13;;;;;;;8.07;100.00;95907.16;5003942;28;20689;-74
2022/09/18 01:32:41;;;;;;;3.53;1.20;;;;;;;8.16;100.00;95916.19;5001761;28;20785;-74
2022/09/18 01:35:14;;;;;;;5.13;1.20;;;;;;;8.16;100.00;95909.28;4994368;28;24468;-73
2022/09/18 01:37:46;;;;;;;2.83;1.00;;;;;;;8.25;100.00;95913.97;5003797;28;20698;-73
2022/09/18 01:40:19;;;;;;;3.80;1.00;;;;;;;8.21;100.00;95909.06;5014166;28;20689;-73
2022/09/18 01:42:49;;;;;;;5.03;1.20;;;;;;;8.15;100.00;95906.78;4998284;28;20705;-73
2022/09/18 01:45:22;;;;;;;8.15;1.40;;;;;;;7.99;100.00;95904.97;5003616;28;20849;-73
2022/09/18 01:47:54;;;;;;;2.80;1.00;;;;;;;7.87;100.00;95889.28;4999314;28;20860;-73
2022/09/18 01:50:21;;;;;;;5.15;1.05;;;;;;;7.82;100.00;95907.56;5001165;28;21357;-73
2022/09/18 01:52:53;;;;;;;3.78;1.30;;;;;;;7.77;100.00;95904.38;5001156;28;20787;-73
2022/09/18 01:55:27;;;;;;;4.50;1.10;;;;;;;7.81;100.00;95899.91;4997544;28;20846;-73
2022/09/18 01:57:58;;;;;;;3.83;0.90;;;;;;;7.78;100.00;95900.88;5005025;28;20781;-73
2022/09/18 02:00:29;;;;;;;5.72;1.00;;;;;;;7.81;100.00;95899.91;5002330;28;24440;-73
2022/09/18 02:03:00;;;;;;;2.58;0.80;;;;;;;7.83;100.00;95898.94;5004521;28;20694;-74
2022/09/18 02:05:31;;;;;;;2.13;0.85;;;;;;;7.86;100.00;95898.78;5001426;28;20760;-73
2022/09/18 02:08:09;;;;;;;3.40;0.80;;;;;;;7.89;100.00;95898.59;5008416;28;20706;-74
2022/09/18 02:10:40;;;;;;;3.63;1.10;;;;;;;7.79;100.00;95893.97;5008279;28;20822;-74
2022/09/18 02:13:10;;;;;;;3.33;1.30;;;;;;;7.76;100.00;95900.97;5003282;28;20821;-74
2022/09/18 02:15:41;;;;;;;4.30;1.25;;;;;;;7.81;100.00;95885.25;5005390;28;20771;-74
2022/09/18 02:18:13;;;;;;;2.08;0.80;;;;;;;7.88;100.00;95883.22;5011499;28;20694;-73
2022/09/18 02:20:44;;;;;;;2.25;0.88;;;;;;;7.85;100.00;95886.78;5006677;28;20716;-74
2022/09/18 02:23:11;;;;;;;3.15;0.73;;;;;;;7.81;100.00;95876.69;5005754;28;21370;-74
2022/09/18 02:25:44;;;;;;;2.15;0.90;;;;;;;7.85;100.00;95880.78;5003191;28;24452;-74
2022/09/18 02:28:15;;;;;;;5.70;1.05;;;;;;;7.74;100.00;95882.16;5005863;28;21242;-74
2022/09/18 02:30:43;;;;;;;3.47;0.80;;;;;;;7.73;100.00;95890.81;5006752;28;20689;-73
2022/09/18 02:33:24;;;;;;;3.35;0.85;;;;;;;7.81;100.00;95893.00;5002826;28;20805;-73
2022/09/18 02:36:01;;;;;;;1.60;0.60;;;;;;;7.84;100.00;95884.28;5003207;28;20692;-73
2022/09/18 02:38:35;;;;;;;1.70;0.60;;;;;;;7.79;100.00;95896.56;5006740;28;20674;-74
2022/09/18 02:41:10;;;;;;;1.55;0.50;;;;;;;7.75;100.00;95898.47;5001731;28;24451;-73
2022/09/18 02:43:47;;;;;;;4.38;0.70;;;;;;;7.76;100.00;95890.66;5008423;28;24464;-73
2022/09/18 02:46:24;;;;;;;2.22;0.70;;;;;;;7.73;100.00;95890.81;5008040;28;20740;-73
2022/09/18 02:49:03;;;;;;;2.03;0.57;;;;;;;7.82;100.00;95886.94;5000533;28;20714;-73
2022/09/18 02:51:37;;;;;;;0.95;0.50;;;;;;;7.85;100.00;95885.94;5004226;28;21239;-73
2022/09/18 02:54:07;;;;;;;3.95;0.80;;;;;;;7.76;100.00;95887.25;5003794;28;20790;-74
2022/09/18 02:56:39;;;;;;;3.37;0.83;;;;;;;7.71;100.00;95889.19;5002795;28;20793;-73
2022/09/18 02:59:11;;;;;;;2.92;0.80;;;;;;;7.73;100.00;95893.38;5005070;28;21339;-73
2022/09/18 03:01:41;;;;;;;2.67;0.70;;;;;;;7.71;100.00;95897.81;5006515;28;20758;-73
2022/09/18 03:04:11;;;;;;;2.38;0.88;;;;;;;7.70;100.00;95895.28;5004334;28;21328;-73
2022/09/18 03:06:38;;;;;;;2.85;0.75;;;;;;;7.67;100.00;95890.28;5005904;28;21078;-73
2022/09/18 03:09:04;;;;;;;1.65;0.70;;;;;;;7.67;100.00;95882.53;5003468;28;20813;-73
2022/09/18 03:11:30;;;;;;;3.85;0.90;;;;;;;7.66;100.00;95881.69;5001706;28;20798;-73
2022/09/18 03:13:57;;;;;;;1.77;0.73;;;;;;;7.70;100.00;95867.75;5008325;28;24439;-73
2022/09/18 03:16:24;;;;;;;3.08;0.80;;;;;;;7.68;100.00;95872.16;5004962;28;24471;-73
2022/09/18 03:18:51;;;;;;;2.35;0.80;;;;;;;7.67;100.00;95870.47;4996470;28;24460;-73
2022/09/18 03:21:18;;;;;;;2.67;0.77;;;;;;;7.65;100.00;95869.72;5014342;28;21381;-73
2022/09/18 03:23:44;;;;;;;2.28;0.60;;;;;;;7.61;100.00;95872.56;5014781;28;21160;-73
2022/09/18 03:26:11;;;;;;;2.97;1.00;;;;;;;7.69;100.00;95860.94;5007498;28;24584;-73
2022/09/18 03:28:37;;;;;;;2.28;0.98;;;;;;;7.71;100.00;95866.88;5009286;28;24452;-73
2022/09/18 03:31:04;;;;;;;4.60;0.73;;;;;;;7.67;100.00;95862.75;5006496;28;21178;-73
2022/09/18 03:33:30;;;;;;;1.98;0.68;;;;;;;7.68;100.00;95864.44;5003107;28;20797;-74
2022/09/18 03:35:58;;;;;;;2.88;1.00;;;;;;;7.74;100.00;95860.69;5009167;28;24815;-73
2022/09/18 03:38:25;;;;;;;3.45;0.82;;;;;;;7.77;100.00;95868.28;5010891;28;20824;-74
2022/09/18 03:40:51;;;;;;;2.30;0.70;;;;;;;7.68;100.00;95876.50;5003400;28;24800;-73
2022/09/18 03:43:18;;;;;;;4.50;0.80;;;;;;;7.72;100.00;95871.09;5004851;28;24814;-73
2022/09/18 03:45:44;;;;;;;2.05;0.80;;;;;;;7.73;100.00;95864.19;5010841;28;20778;-73
2022/09/18 03:48:11;;;;;;;4.32;1.13;;;;;;;7.65;100.00;95872.31;5007011;28;21764;-73
2022/09/18 03:50:38;;;;;;;5.05;0.88;;;;;;;7.71;100.00;95876.31;5007348;28;24997;-73
2022/09/18 03:53:07;;;;;;;3.50;1.07;;;;;;;7.78;100.00;95876.84;5002609;28;20879;-73
2022/09/18 03:55:33;;;;;;;2.53;1.00;;;;;;;7.72;100.00;95875.44;4996743;28;20802;-73
2022/09/18 03:58:00;;;;;;;4.95;0.88;;;;;;;7.73;100.00;95887.41;5003251;28;20813;-73
2022/09/18 04:00:26;;;;;;;4.10;1.10;;;;;;;7.74;100.00;95874.41;5007308;28;24456;-73
2022/09/18 04:02:53;;;;;;;4.82;1.08;;;;;;;7.72;100.00;95878.84;4997674;28;21376;-73
2022/09/18 04:05:19;;;;;;;2.83;0.90;;;;;;;7.73;100.00;95872.75;5006284;28;20784;-73
2022/09/18 04:07:46;;;;;;;4.70;1.05;;;;;;;7.70;100.00;95884.97;5001208;28;24484;-73
2022/09/18 04:10:14;;;;;;;4.28;1.10;;;;;;;7.69;100.00;95883.31;5009123;28;24463;-73
2022/09/18 04:12:40;;;;;;;3.70;1.02;;;;;;;7.71;100.00;95892.66;4995206;28;20928;-73
2022/09/18 04:15:08;;;;;;;3.00;0.90;;;;;;;7.72;100.00;95896.88;5015114;28;20784;-73
2022/09/18 04:17:35;;;;;;;4.57;1.17;;;;;;;7.70;100.00;95903.00;5001146;28;20828;-73
2022/09/18 04:20:01;;;;;;;9.88;1.40;;;;;;;7.71;100.00;95902.09;5010813;28;24456;-73
2022/09/18 04:22:28;;;;;;;3.45;1.05;;;;;;;7.67;100.00;95891.09;4998669;28;24448;-73
2022/09/18 04:24:54;;;;;;;4.15;0.88;;;;;;;7.67;100.00;95905.72;5007039;28;24467;-73
2022/09/18 04:27:22;;;;;;;10.10;1.10;;;;;;;7.65;100.00;95899.84;5004318;28;24492;-73
2022/09/18 04:29:49;;;;;;;3.63;0.93;;;;;;;7.69;100.00;95909.09;5003372;28;20823;-73
2022/09/18 04:32:15;;;;;;;2.22;0.90;;;;;;;7.76;100.00;95902.72;5000873;28;24456;-73
2022/09/18 04:34:42;;;;;;;3.55;0.82;;;;;;;7.74;100.00;95901.94;5003062;28;24456;-73
2022/09/18 04:37:09;;;;;;;2.42;0.77;;;;;;;7.83;100.00;95903.25;5004237;28;20835;-73
2022/09/18 04:39:35;;;;;;;8.13;0.80;;;;;;;7.81;100.00;95900.72;4999393;28;20801;-73
2022/09/18 04:42:02;;;;;;;3.37;0.73;;;;;;;7.73;100.00;95888.22;5001862;28;25022;-73
2022/09/18 04:44:30;;;;;;;3.00;0.85;;;;;;;7.82;100.00;95897.25;5006052;28;24447;-73
2022/09/18 04:46:57;;;;;;;1.85;0.80;;;;;;;7.80;100.00;95896.50;5009906;28;20782;-73
2022/09/18 04:49:24;;;;;;;5.10;1.13;;;;;;;7.82;100.00;95881.78;5007071;28;20825;-73
2022/09/18 04:51:50;;;;;;;3.92;0.95;;;;;;;7.82;100.00;95884.34;5005448;28;20788;-73
2022/09/18 04:54:16;;;;;;;5.65;1.20;;;;;;;7.76;100.00;95882.09;5003142;28;24467;-74
2022/09/18 04:56:43;;;;;;;4.10;1.37;;;;;;;7.75;100.00;95889.00;5009852;28;24458;-73
2022/09/18 04:59:09;;;;;;;3.50;1.33;;;;;;;7.80;100.00;95875.88;5001852;28;24452;-73
2022/09/18 05:01:37;;;;;;;3.33;1.00;;;;;;;7.73;100.00;95872.75;5006018;28;20799;-73
2022/09/18 05:04:04;;;;;;;5.45;1.48;;;;;;;7.71;100.00;95882.34;4995295;28;21182;-73
2022/09/18 05:06:30;;;;;;;5.13;1.30;;;;;;;7.79;100.00;95875.94;4999521;28;24807;-73
2022/09/18 05:08:57;;;;;;;3.67;1.60;;;;;;;7.84;100.00;95874.81;5003055;28;24459;-73
2022/09/18 05:11:24;;;;;;;4.40;1.60;;;;;;;7.78;100.00;95871.69;5011658;28;20777;-73
2022/09/18 05:13:55;;;;;;;5.13;1.42;;;;;;;7.78;100.00;95887.16;4999205;28;24456;-73
2022/09/18 05:16:22;;;;;;;4.10;1.15;;;;;;;7.72;100.00;95884.00;4998995;28;20808;-73
2022/09/18 05:18:49;;;;;;;3.00;1.17;;;;;;;7.81;100.00;95899.91;5007597;28;24460;-73
2022/09/18 05:21:16;;;;;;;4.00;1.73;;;;;;;7.73;100.00;95895.97;5004755;28;24456;-73
2022/09/18 05:23:44;;;;;;;3.67;1.20;;;;;;;7.76;100.00;95897.56;4999495;28;24463;-73
2022/09/18 05:26:10;;;;;;;2.50;1.00;;;;;;;7.80;100.00;95896.50;5004158;28;20874;-73
2022/09/18 05:28:37;;;;;;;3.73;1.10;;;;;;;7.83;100.00;95892.94;5003704;28;20794;-73
2022/09/18 05:31:04;;;;;;;2.80;1.25;;;;;;;7.91;100.00;95899.38;4998160;28;24823;-73
2022/09/18 05:33:30;;;;;;;3.80;1.13;;;;;;;7.79;100.00;95910.31;5005449;28;24985;-73
2022/09/18 05:35:59;;;;;;;2.85;1.02;;;;;;;7.72;100.00;95907.19;5001109;28;25078;-73
2022/09/18 05:38:26;;;;;;;5.90;1.05;;;;;;;7.84;100.00;95908.31;5003359;28;25016;-73
2022/09/18 05:40:53;;;;;;;6.65;1.15;;;;;;;7.76;100.00;95906.13;4995657;28;24456;-73
2022/09/18 05:43:19;;;;;;;3.17;1.02;;;;;;;7.90;100.00;95907.19;4993526;28;24457;-73
2022/09/18 05:45:46;;;;;;;2.03;0.90;;;;;;;7.84;100.00;95907.50;5006925;28;24459;-73
2022/09/18 05:48:12;;;;;;;3.78;1.08;;;;;;;7.86;100.00;95908.22;5010405;28;25124;-73
2022/09/18 05:50:41;;;;;;;3.10;1.00;;;;;;;7.87;100.00;95915.91;5015009;28;24443;-73
2022/09/18 05:53:11;;;;;;;6.45;1.30;;;;;;;7.83;100.00;95916.97;4999603;28;21319;-73
2022/09/18 05:55:38;;;;;;;3.97;1.30;;;;;;;7.79;100.00;95907.72;4999896;28;25200;-73
2022/09/18 05:58:07;;;;;;;3.08;1.10;;;;;;;7.83;100.00;95906.66;4997815;28;20795;-73
2022/09/18 06:00:35;;;;;;;4.50;1.10;;;;;;;7.87;100.00;95907.34;4993190;28;20821;-73
2022/09/18 06:03:04;;;;;;;2.85;1.00;;;;;;;7.90;100.00;95895.13;4997873;28;20797;-72
2022/09/18 06:05:32;;;;;;;4.30;1.25;;;;;;;7.88;100.00;95904.69;5008271;28;20775;-72
2022/09/18 06:07:59;;;;;;;7.18;1.20;;;;;;;7.92;100.00;95893.28;4994195;28;20765;-72
2022/09/18 06:10:28;;;;;;;2.30;1.00;;;;;;;7.98;100.00;95910.22;4994202;28;24812;-72
2022/09/18 06:13:01;;;;;;;8.23;2.95;;;;;;;7.99;100.00;95906.72;4994515;28;24536;-72
2022/09/18 06:15:27;;;;;;;4.80;1.60;;;;;;;7.98;100.00;95913.63;4992239;28;20798;-72
2022/09/18 06:17:54;;;;;;;6.93;1.77;;;;;;;8.16;100.00;95911.03;4998501;28;24484;-72
2022/09/18 06:20:20;;;;;;;4.47;1.45;;;;;;;8.12;100.00;95915.53;5004689;28;25904;-72
2022/09/18 06:22:47;;;;;;;3.55;1.25;;;;;;;8.22;100.00;95913.28;4994379;28;25185;-72
2022/09/18 06:25:17;;;;;;;2.85;1.02;;;;;;;8.14;100.00;95918.00;5009506;28;24445;-72
2022/09/18 06:27:45;;;;;;;2.40;0.93;;;;;;;8.08;100.00;95923.47;4999739;28;20819;-72
2022/09/18 06:30:13;;;;;;;5.38;1.10;;;;;;;8.10;100.00;95919.09;4998366;28;25053;-72
2022/09/18 06:32:40;;;;;;;2.85;1.00;;;;;;;8.16;100.00;95921.38;5005100;28;20781;-72
2022/09/18 06:35:08;;;;;;;2.13;0.82;;;;;;;8.11;100.00;95925.91;5005670;28;24452;-72
2022/09/18 06:37:35;;;;;;;3.15;0.75;;;;;;;8.17;100.00;95923.03;5002310;28;20794;-72
2022/09/18 06:40:02;;;;;;;6.03;1.23;;;;;;;8.27;100.00;95937.13;5003411;28;24443;-72
2022/09/18 06:42:28;;;;;;;3.05;1.10;;;;;;;8.28;100.00;95931.03;4996469;28;24439;-72
2022/09/18 06:44:56;;;;;;;7.10;1.23;;;;;;;8.34;100.00;95930.72;4994260;28;24452;-72
2022/09/18 06:47:22;;;;;;;2.90;1.23;;;;;;;8.40;100.00;95933.03;5003040;28;20819;-72
2022/09/18 06:49:49;;;;;;;1.85;1.20;;;;;;;8.38;100.00;95937.44;4994570;28;20796;-72
2022/09/18 06:52:15;;;;;;;2.97;1.20;;;;;;;8.29;100.00;95932.72;5002717;28;21334;-72
2022/09/18 06:54:42;;;;;;;2.47;1.25;;;;;;;8.35;100.00;95940.16;4996393;28;25006;-72
2022/09/18 06:57:08;;;;;;;2.47;1.30;;;;;;;8.41;100.00;95934.69;5003642;28;25016;-72
2022/09/18 06:59:36;;;;;;;3.15;1.08;;;;;;;8.41;100.00;95939.00;4999820;28;25020;-72
2022/09/18 07:02:04;;;;;;;3.63;1.00;;;;;;;8.30;100.00;95933.53;4996584;28;21177;-72
2022/09/18 07:04:31;;;;;;;2.63;0.90;;;;;;;8.32;100.00;95937.72;5008839;28;25329;-72
2022/09/18 07:06:57;;;;;;;2.78;0.80;;;;;;;8.33;100.00;95936.78;4996723;28;24451;-72
2022/09/18 07:09:24;;;;;;;2.73;1.10;;;;;;;8.35;100.00;95940.16;5002761;28;24448;-72
2022/09/18 07:11:50;;;;;;;2.85;1.15;;;;;;;8.35;100.00;95934.16;5002910;28;24455;-72
2022/09/18 07:14:16;;;;;;;2.53;1.02;;;;;;;8.33;100.00;95930.81;5000459;28;20792;-72
2022/09/18 07:16:43;;;;;;;3.50;1.52;;;;;;;8.27;100.00;95936.28;5000570;28;24456;-72
2022/09/18 07:19:11;;;;;;;6.20;2.53;;;;;;;8.25;100.00;95942.34;5002394;28;21638;-72
2022/09/18 07:21:38;;;;;;;6.15;2.10;;;;;;;8.23;100.00;95943.31;4995043;28;20810;-72
2022/09/18 07:24:05;;;;;;;3.10;1.55;;;;;;;8.32;100.00;95942.06;5000475;28;24429;-72
2022/09/18 07:26:31;;;;;;;4.70;1.48;;;;;;;8.25;100.00;95938.94;4993310;28;24830;-72
2022/09/18 07:28:58;;;;;;;3.55;1.20;;;;;;;8.25;100.00;95942.34;5005464;28;20791;-72
2022/09/18 07:31:25;;;;;;;6.32;1.25;;;;;;;8.19;100.00;95947.84;4993455;28;20787;-72
2022/09/18 07:33:52;;;;;;;6.53;1.13;;;;;;;8.11;100.00;95949.94;4998261;28;24437;-72
2022/09/18 07:36:20;;;;;;;2.50;0.95;;;;;;;8.19;100.00;95946.97;4995000;28;20824;-72
2022/09/18 07:38:49;;;;;;;4.83;1.00;;;;;;;8.22;100.00;95952.00;5000701;28;24817;-72
2022/09/18 07:41:16;;;;;;;6.03;1.53;;;;;;;8.32;100.00;95955.78;4994993;28;21170;-71
2022/09/18 07:43:42;;;;;;;6.53;1.37;;;;;;;8.21;100.00;95951.16;5001208;28;20854;-71
2022/09/18 07:46:09;;;;;;;4.70;1.30;;;;;;;8.24;100.00;95965.66;4994490;28;20787;-72
2022/09/18 07:48:36;;;;;;;5.22;1.40;;;;;;;8.20;100.00;95962.41;5003037;28;20774;-72
2022/09/18 07:51:03;;;;;;;2.88;1.13;;;;;;;8.29;100.00;95955.09;4999075;28;20801;-71
2022/09/18 07:53:31;;;;;;;4.77;1.50;;;;;;;8.22;100.00;95960.56;4995728;28;20815;-71
2022/09/18 07:55:58;;;;;;;7.68;1.40;;;;;;;8.28;100.00;95962.00;4999969;28;20878;-71
2022/09/18 07:58:25;;;;;;;8.32;1.73;;;;;;;8.41;100.00;95963.06;5006800;28;20810;-70
2022/09/18 08:00:52;;;;;;;4.90;1.60;;;;;;;8.52;100.00;95965.09;4996863;28;20804;-71
2022/09/18 08:03:19;;;;;;;5.25;1.52;;;;;;;8.56;100.00;95971.78;4996345;28;20797;-70
2022/09/18 08:05:46;;;;;;;3.75;1.33;;;;;;;8.60;100.00;95972.44;5005042;28;24479;-70
2022/09/18 08:08:14;;;;;;;4.45;1.35;;;;;;;8.73;100.00;95974.31;5000544;28;20783;-70
2022/09/18 08:10:44;;;;;;;4.25;1.48;;;;;;;8.69;100.00;95972.00;5003261;28;20835;-70
2022/09/18 08:13:11;;;;;;;6.55;1.75;;;;;;;8.77;100.00;95972.41;5002511;28;20724;-70
2022/09/18 08:15:40;;;;;;;5.90;1.60;;;;;;;8.78;100.00;95974.06;5006011;28;20779;-71
2022/09/18 08:18:08;;;;;;;5.32;1.50;;;;;;;8.76;100.00;95978.50;5003139;28;20841;-71
2022/09/18 08:20:35;;;;;;;7.28;2.50;;;;;;;8.73;100.00;95982.06;5007812;28;25149;-71
2022/09/18 08:23:02;;;;;;;4.80;1.63;;;;;;;8.77;100.00;95982.75;5004051;28;25725;-71
2022/09/18 08:25:29;;;;;;;10.13;1.57;;;;;;;8.78;100.00;95991.31;4994880;28;25175;-70
2022/09/18 08:28:00;;;;;;;7.47;1.33;;;;;;;8.73;100.00;95984.66;5001824;28;20775;-71
2022/09/18 08:30:27;;;;;;;5.60;1.50;;;;;;;8.87;100.00;95986.53;5004949;28;25068;-70
2022/09/18 08:32:57;;;;;;;5.18;1.35;;;;;;;8.91;100.00;95982.03;5001737;28;20779;-67
2022/09/18 08:35:24;;;;;;;4.78;1.30;;;;;;;8.95;100.00;95992.13;5001505;28;24432;-70
2022/09/18 08:37:51;;;;;;;4.38;1.40;;;;;;;9.09;100.00;95991.41;5001595;28;25008;-70
2022/09/18 08:40:21;;;;;;;4.13;1.45;;;;;;;9.05;100.00;95989.03;5007076;28;24993;-71
2022/09/18 08:43:05;;;;;;;6.40;2.40;;;;;;;9.03;100.00;95986.53;5002378;28;24452;-70
2022/09/18 08:45:42;;;;;;;7.40;2.90;;;;;;;9.07;100.00;95984.63;4999534;28;24503;-70
2022/09/18 08:48:13;;;;;;;4.43;1.20;;;;;;;9.07;100.00;95989.78;5000726;28;20674;-71
2022/09/18 08:50:43;;;;;;;3.67;1.35;;;;;;;9.12;100.00;95990.38;4999976;28;20763;-70
2022/09/18 08:53:15;;;;;;;3.60;1.23;;;;;;;9.14;100.00;95985.97;5006330;28;20779;-71
2022/09/18 08:55:46;;;;;;;5.78;1.67;;;;;;;9.18;100.00;95985.72;4998414;28;20752;-71
2022/09/18 08:58:16;;;;;;;7.78;1.60;;;;;;;9.19;100.00;95989.13;5006496;28;20695;-71
2022/09/18 09:00:46;;;;;;;4.32;2.08;;;;;;;9.29;100.00;95992.91;5009980;28;20778;-70
2022/09/18 09:03:22;;;;;;;5.57;1.77;;;;;;;9.36;100.00;95991.66;4998573;28;20843;-70
2022/09/18 09:05:52;;;;;;;4.38;1.50;;;;;;;9.29;100.00;95997.25;5002095;28;24448;-70
2022/09/18 09:08:35;;;;;;;4.80;1.30;;;;;;;9.41;100.00;95996.56;5000186;28;24447;-70
2022/09/18 09:11:11;;;;;;;4.15;1.38;;;;;;;9.47;100.00;95998.81;4996999;28;21316;-70
2022/09/18 09:14:15;;;;;;;5.78;1.80;;;;;;;9.52;100.00;95995.97;4998590;28;24495;-70
2022/09/18 09:16:43;;;;;;;4.75;1.50;;;;;;;9.72;100.00;96000.06;4990584;28;24432;-71
2022/09/18 09:19:25;;;;;;;4.93;2.00;;;;;;;9.73;100.00;96001.72;4991411;28;24460;-70
2022/09/18 09:21:59;;;;;;;12.80;4.45;;;;;;;9.76;100.00;95998.97;5004260;28;24436;-70
2022/09/18 09:24:31;;;;;;;8.90;2.60;;;;;;;9.86;100.00;95998.38;4997084;28;24448;-70
2022/09/18 09:27:02;;;;;;;7.93;2.53;;;;;;;10.00;100.00;95992.41;4999895;28;24548;-70
2022/09/18 09:29:33;;;;;;;12.13;4.40;;;;;;;10.24;100.00;95987.59;5005879;28;24440;-70
2022/09/18 09:32:06;;;;;;;5.72;2.00;;;;;;;10.41;100.00;95994.38;5001556;28;24447;-71
2022/09/18 09:34:39;;;;;;;10.38;2.67;;;;;;;10.67;100.00;95992.84;5003208;28;24440;-71
2022/09/18 09:37:14;;;;;;;7.45;2.45;;;;;;;10.87;100.00;95994.25;5003284;28;24436;-70
2022/09/18 09:39:44;;;;;;;5.65;1.60;;;;;;;10.97;100.00;95997.94;4993102;28;24471;-71
2022/09/18 09:42:17;;;;;;;5.47;1.50;;;;;;;11.12;100.00;95984.06;4996478;28;24440;-71
2022/09/18 09:44:51;;;;;;;13.98;1.40;;;;;;;11.04;100.00;95988.88;4995693;28;24468;-74
2022/09/18 09:47:27;;;;;;;4.72;1.70;;;;;;;11.17;100.00;95985.53;5000931;28;24451;-71
2022/09/18 09:50:05;;;;;;;6.25;1.13;;;;;;;11.31;100.00;95982.91;5000532;28;24455;-72
2022/09/18 09:52:31;;;;;;;5.35;1.08;;;;;;;11.43;100.00;95982.16;5000543;28;24440;-72
2022/09/18 09:55:08;;;;;;;4.03;1.37;;;;;;;11.27;100.00;95982.28;4995831;28;24488;-74
2022/09/18 09:57:42;;;;;;;6.57;1.50;;;;;;;11.54;100.00;95986.69;5004078;28;24452;-72
2022/09/18 10:00:16;;;;;;;5.60;1.35;;;;;;;11.27;100.00;95984.03;4996119;28;24459;-72
2022/09/18 10:03:01;;;;;;;5.43;1.27;;;;;;;11.61;100.00;95977.56;5002753;28;25068;-72
2022/09/18 10:05:32;;;;;;;6.22;0.90;;;;;;;11.34;100.00;95980.94;5000418;28;24851;-72
2022/09/18 10:08:03;;;;;;;4.93;1.35;;;;;;;11.78;100.00;95977.31;5005376;28;24438;-72
2022/09/18 10:10:38;;;;;;;6.47;1.38;;;;;;;12.21;100.00;95964.19;4999925;28;24519;-72
2022/09/18 10:13:11;;;;;;;4.78;1.33;;;;;;;12.39;100.00;95969.91;5003065;28;24531;-72
2022/09/18 10:15:43;;;;;;;6.20;1.10;;;;;;;12.53;99.59;95968.97;5008159;28;24446;-72
2022/09/18 10:18:15;;;;;;;3.22;1.10;;;;;;;12.59;95.87;95969.41;5003100;28;24445;-72
2022/09/18 10:20:43;;;;;;;4.30;1.48;;;;;;;12.95;95.95;95974.81;5008837;28;24455;-72
2022/09/18 10:23:14;;;;;;;4.55;1.00;;;;;;;12.64;95.66;95982.06;5003899;28;24448;-72
2022/09/18 10:25:45;;;;;;;3.00;1.00;;;;;;;12.72;94.35;95977.22;5000365;28;25297;-72
2022/09/18 10:28:12;;;;;;;5.32;1.13;;;;;;;12.94;91.88;95971.38;4993784;28;24791;-72
2022/09/18 10:30:54;;;;;;;2.10;1.02;;;;;;;13.06;88.64;95969.69;5008806;28;24491;-72
2022/09/18 10:33:35;;;;;;;3.95;1.05;;;;;;;12.91;90.11;95963.78;4994109;28;25029;-72
2022/09/18 10:36:09;;;;;;;3.70;0.90;;;;;;;13.08;88.26;95958.22;5003135;28;24460;-72
2022/09/18 10:38:38;;;;;;;5.53;1.08;;;;;;;12.94;87.26;95960.97;4998828;28;24464;-72
2022/09/18 10:41:23;;;;;;;6.40;1.37;;;;;;;13.12;84.40;95958.00;5000102;28;24971;-72
2022/09/18 10:43:57;;;;;;;3.90;1.20;;;;;;;12.91;81.96;95949.97;4996980;28;25017;-72
2022/09/18 10:46:27;;;;;;;3.53;1.13;;;;;;;13.00;87.60;95954.50;4997875;28;24448;-71
2022/09/18 10:48:54;;;;;;;3.47;1.20;;;;;;;12.43;87.17;95939.38;5005992;28;25040;-71
2022/09/18 10:51:24;;;;;;;3.22;0.93;;;;;;;11.91;87.14;95943.66;4998394;28;24603;-72
2022/09/18 10:54:02;;;;;;;3.45;1.00;;;;;;;12.21;89.53;95956.38;5000947;28;24536;-71
2022/09/18 10:56:28;;;;;;;9.20;1.52;;;;;;;12.29;88.58;95948.91;5006704;28;24455;-71
2022/09/18 10:58:55;;;;;;;3.80;1.30;;;;;;;11.96;91.51;95953.75;4997467;28;24463;-72
2022/09/18 11:01:25;;;;;;;4.18;1.20;;;;;;;12.12;91.03;95946.59;4999696;28;24463;-72
2022/09/18 11:04:00;;;;;;;2.85;0.98;;;;;;;12.21;92.14;95945.19;5000231;28;24817;-72
2022/09/18 11:06:29;;;;;;;2.15;1.00;;;;;;;12.47;89.65;95943.44;4998812;28;24451;-72
2022/09/18 11:09:02;;;;;;;4.65;1.20;;;;;;;12.40;89.97;95940.41;4994461;28;24433;-72
2022/09/18 11:11:31;;;;;;;5.63;1.27;;;;;;;12.48;88.06;95935.53;5000533;28;24444;-72
2022/09/18 11:13:59;;;;;;;3.47;1.17;;;;;;;12.49;86.59;95942.38;4996460;28;24448;-72
2022/09/18 11:16:31;;;;;;;3.05;0.90;;;;;;;12.68;86.54;95934.19;4990766;28;25093;-71
2022/09/18 11:19:22;;;;;;;8.85;1.40;;;;;;;12.66;86.77;95930.84;4998620;28;24455;-72
2022/09/18 11:21:50;;;;;;;4.60;1.00;;;;;;;12.65;86.82;95938.75;4998075;28;24447;-72
2022/09/18 11:24:22;;;;;;;4.63;0.88;;;;;;;12.47;84.79;95933.88;4997677;28;25052;-72
2022/09/18 11:26:50;;;;;;;2.45;0.88;;;;;;;12.20;85.54;95933.09;5001650;28;24448;-72
2022/09/18 11:29:22;;;;;;;7.07;1.33;;;;;;;12.28;86.36;95936.88;5002891;28;24433;-72
2022/09/18 11:31:54;;;;;;;3.83;0.90;;;;;;;12.62;82.76;95941.56;5002128;28;24444;-72
2022/09/18 11:34:25;;;;;;;3.38;1.00;;;;;;;12.45;83.70;95942.69;5000160;28;24848;-72
2022/09/18 11:36:55;;;;;;;3.53;1.20;;;;;;;12.62;84.34;95933.75;5010404;28;24444;-73
2022/09/18 11:39:26;;;;;;;2.42;1.00;;;;;;;12.48;86.88;95916.50;4994381;28;24463;-72
2022/09/18 11:41:54;;;;;;;4.13;0.90;;;;;;;12.57;84.78;95915.91;5000094;28;24444;-71
2022/09/18 11:44:25;;;;;;;2.70;1.00;;;;;;;12.33;79.31;95903.63;5006859;28;24451;-71